sensor_id;sensor_type;location;lat;lon;timestamp;P1;durP1;ratioP1;P2;durP2;ratioP2
3523;SDS011;1776;53.330;11.498;2024-03-22T00:01:18;9.23;;;4.73;;
3523;SDS011;1776;53.330;11.498;2024-03-22T00:03:44;10.70;;;5.27;;
3523;SDS011;1776;53.330;11.498;2024-03-22T00:06:10;12.03;;;5.73;;
3523;SDS011;1776;53.330;11.498;2024-03-22T00:08:35;13.27;;;6.33;;
3523;SDS011;1776;53.330;11.498;2024-03-22T00:11:00;16.07;;;6.47;;
3523;SDS011;1776;53.330;11.498;2024-03-22T00:13:25;12.80;;;5.73;;
3523;SDS011;1776;53.330;11.498;2024-03-22T00:15:51;10.23;;;5.87;;
3523;SDS011;1776;53.330;11.498;2024-03-22T00:18:16;12.30;;;7.00;;
3523;SDS011;1776;53.330;11.498;2024-03-22T00:20:41;10.43;;;6.30;;
3523;SDS011;1776;53.330;11.498;2024-03-22T00:23:06;13.03;;;5.70;;
3523;SDS011;1776;53.330;11.498;2024-03-22T00:25:32;9.70;;;5.57;;
3523;SDS011;1776;53.330;11.498;2024-03-22T00:27:57;15.93;;;7.10;;
3523;SDS011;1776;53.330;11.498;2024-03-22T00:30:22;10.53;;;6.10;;
3523;SDS011;1776;53.330;11.498;2024-03-22T00:32:48;9.57;;;6.20;;
3523;SDS011;1776;53.330;11.498;2024-03-22T00:35:13;11.33;;;7.53;;
3523;SDS011;1776;53.330;11.498;2024-03-22T00:37:38;12.13;;;6.57;;
3523;SDS011;1776;53.330;11.498;2024-03-22T00:40:04;11.73;;;6.33;;
3523;SDS011;1776;53.330;11.498;2024-03-22T00:42:30;12.53;;;6.63;;
3523;SDS011;1776;53.330;11.498;2024-03-22T00:44:55;11.83;;;6.40;;
3523;SDS011;1776;53.330;11.498;2024-03-22T00:47:22;13.57;;;7.20;;
3523;SDS011;1776;53.330;11.498;2024-03-22T00:49:47;12.10;;;6.30;;
3523;SDS011;1776;53.330;11.498;2024-03-22T00:52:12;16.63;;;7.07;;
3523;SDS011;1776;53.330;11.498;2024-03-22T00:54:37;22.53;;;8.70;;
3523;SDS011;1776;53.330;11.498;2024-03-22T00:57:04;8.43;;;6.00;;
3523;SDS011;1776;53.330;11.498;2024-03-22T00:59:29;13.50;;;7.40;;
3523;SDS011;1776;53.330;11.498;2024-03-22T01:01:55;16.87;;;8.23;;
3523;SDS011;1776;53.330;11.498;2024-03-22T01:04:20;15.23;;;6.67;;
3523;SDS011;1776;53.330;11.498;2024-03-22T01:06:45;10.80;;;7.10;;
3523;SDS011;1776;53.330;11.498;2024-03-22T01:09:10;11.77;;;7.10;;
3523;SDS011;1776;53.330;11.498;2024-03-22T01:11:36;12.20;;;7.30;;
3523;SDS011;1776;53.330;11.498;2024-03-22T01:14:01;15.90;;;7.67;;
3523;SDS011;1776;53.330;11.498;2024-03-22T01:16:27;16.40;;;8.53;;
3523;SDS011;1776;53.330;11.498;2024-03-22T01:18:52;18.70;;;7.80;;
3523;SDS011;1776;53.330;11.498;2024-03-22T01:21:17;14.67;;;8.00;;
3523;SDS011;1776;53.330;11.498;2024-03-22T01:23:42;12.33;;;7.30;;
3523;SDS011;1776;53.330;11.498;2024-03-22T01:26:08;14.07;;;7.13;;
3523;SDS011;1776;53.330;11.498;2024-03-22T01:28:33;17.20;;;7.73;;
3523;SDS011;1776;53.330;11.498;2024-03-22T01:30:58;13.50;;;8.00;;
3523;SDS011;1776;53.330;11.498;2024-03-22T01:33:23;13.57;;;8.60;;
3523;SDS011;1776;53.330;11.498;2024-03-22T01:35:49;17.80;;;8.50;;
3523;SDS011;1776;53.330;11.498;2024-03-22T01:38:14;13.30;;;8.50;;
3523;SDS011;1776;53.330;11.498;2024-03-22T01:40:39;12.93;;;7.80;;
3523;SDS011;1776;53.330;11.498;2024-03-22T01:43:04;14.60;;;7.40;;
3523;SDS011;1776;53.330;11.498;2024-03-22T01:45:31;12.93;;;8.17;;
3523;SDS011;1776;53.330;11.498;2024-03-22T01:47:58;17.30;;;8.47;;
3523;SDS011;1776;53.330;11.498;2024-03-22T01:50:24;14.17;;;8.93;;
3523;SDS011;1776;53.330;11.498;2024-03-22T01:52:50;14.07;;;8.90;;
3523;SDS011;1776;53.330;11.498;2024-03-22T01:55:16;19.00;;;8.40;;
3523;SDS011;1776;53.330;11.498;2024-03-22T01:57:42;15.87;;;8.73;;
3523;SDS011;1776;53.330;11.498;2024-03-22T02:00:08;13.93;;;8.10;;
3523;SDS011;1776;53.330;11.498;2024-03-22T02:02:34;16.13;;;8.97;;
3523;SDS011;1776;53.330;11.498;2024-03-22T02:04:59;15.40;;;8.13;;
3523;SDS011;1776;53.330;11.498;2024-03-22T02:07:35;13.80;;;8.70;;
3523;SDS011;1776;53.330;11.498;2024-03-22T02:10:01;21.77;;;9.90;;
3523;SDS011;1776;53.330;11.498;2024-03-22T02:12:26;14.90;;;9.03;;
3523;SDS011;1776;53.330;11.498;2024-03-22T02:14:51;19.20;;;11.63;;
3523;SDS011;1776;53.330;11.498;2024-03-22T02:17:17;18.83;;;11.00;;
3523;SDS011;1776;53.330;11.498;2024-03-22T02:19:42;21.70;;;11.80;;
3523;SDS011;1776;53.330;11.498;2024-03-22T02:22:07;28.87;;;11.73;;
3523;SDS011;1776;53.330;11.498;2024-03-22T02:24:32;17.93;;;12.20;;
3523;SDS011;1776;53.330;11.498;2024-03-22T02:26:58;24.97;;;12.70;;
3523;SDS011;1776;53.330;11.498;2024-03-22T02:29:23;25.20;;;12.93;;
3523;SDS011;1776;53.330;11.498;2024-03-22T02:31:48;21.57;;;12.73;;
3523;SDS011;1776;53.330;11.498;2024-03-22T02:34:13;22.73;;;13.13;;
3523;SDS011;1776;53.330;11.498;2024-03-22T02:36:39;21.43;;;13.37;;
3523;SDS011;1776;53.330;11.498;2024-03-22T02:39:04;19.37;;;11.30;;
3523;SDS011;1776;53.330;11.498;2024-03-22T02:41:29;23.73;;;11.60;;
3523;SDS011;1776;53.330;11.498;2024-03-22T02:43:54;20.50;;;12.70;;
3523;SDS011;1776;53.330;11.498;2024-03-22T02:46:20;18.10;;;11.30;;
3523;SDS011;1776;53.330;11.498;2024-03-22T02:48:45;18.60;;;10.83;;
3523;SDS011;1776;53.330;11.498;2024-03-22T02:51:10;18.93;;;11.30;;
3523;SDS011;1776;53.330;11.498;2024-03-22T02:53:35;19.07;;;13.40;;
3523;SDS011;1776;53.330;11.498;2024-03-22T02:56:01;23.63;;;14.47;;
3523;SDS011;1776;53.330;11.498;2024-03-22T02:58:26;21.43;;;13.33;;
3523;SDS011;1776;53.330;11.498;2024-03-22T03:00:51;23.10;;;11.97;;
3523;SDS011;1776;53.330;11.498;2024-03-22T03:03:16;18.90;;;11.30;;
3523;SDS011;1776;53.330;11.498;2024-03-22T03:05:42;21.50;;;13.00;;
3523;SDS011;1776;53.330;11.498;2024-03-22T03:08:07;20.03;;;13.57;;
3523;SDS011;1776;53.330;11.498;2024-03-22T03:10:32;17.20;;;11.87;;
3523;SDS011;1776;53.330;11.498;2024-03-22T03:12:58;20.50;;;14.07;;
3523;SDS011;1776;53.330;11.498;2024-03-22T03:15:23;26.10;;;14.17;;
3523;SDS011;1776;53.330;11.498;2024-03-22T03:17:48;24.63;;;15.50;;
3523;SDS011;1776;53.330;11.498;2024-03-22T03:20:14;20.93;;;13.63;;
3523;SDS011;1776;53.330;11.498;2024-03-22T03:22:40;21.93;;;14.70;;
3523;SDS011;1776;53.330;11.498;2024-03-22T03:25:05;27.07;;;14.57;;
3523;SDS011;1776;53.330;11.498;2024-03-22T03:27:31;25.90;;;16.10;;
3523;SDS011;1776;53.330;11.498;2024-03-22T03:29:57;25.40;;;16.07;;
3523;SDS011;1776;53.330;11.498;2024-03-22T03:32:22;27.70;;;15.23;;
3523;SDS011;1776;53.330;11.498;2024-03-22T03:34:48;25.67;;;14.73;;
3523;SDS011;1776;53.330;11.498;2024-03-22T03:37:14;29.90;;;16.20;;
3523;SDS011;1776;53.330;11.498;2024-03-22T03:39:39;24.73;;;15.63;;
3523;SDS011;1776;53.330;11.498;2024-03-22T03:42:04;22.70;;;14.57;;
3523;SDS011;1776;53.330;11.498;2024-03-22T03:44:30;20.97;;;13.23;;
3523;SDS011;1776;53.330;11.498;2024-03-22T03:46:55;25.70;;;17.13;;
3523;SDS011;1776;53.330;11.498;2024-03-22T03:49:20;21.03;;;14.00;;
3523;SDS011;1776;53.330;11.498;2024-03-22T03:51:46;21.40;;;14.97;;
3523;SDS011;1776;53.330;11.498;2024-03-22T03:54:11;34.47;;;17.40;;
3523;SDS011;1776;53.330;11.498;2024-03-22T03:56:36;33.17;;;17.47;;
3523;SDS011;1776;53.330;11.498;2024-03-22T03:59:02;33.60;;;16.93;;
3523;SDS011;1776;53.330;11.498;2024-03-22T04:01:27;28.20;;;16.23;;
3523;SDS011;1776;53.330;11.498;2024-03-22T04:03:52;33.03;;;18.00;;
3523;SDS011;1776;53.330;11.498;2024-03-22T04:06:17;30.67;;;15.17;;
3523;SDS011;1776;53.330;11.498;2024-03-22T04:08:43;29.80;;;17.60;;
3523;SDS011;1776;53.330;11.498;2024-03-22T04:11:09;26.27;;;16.70;;
3523;SDS011;1776;53.330;11.498;2024-03-22T04:13:34;27.00;;;15.77;;
3523;SDS011;1776;53.330;11.498;2024-03-22T04:15:59;25.80;;;16.60;;
3523;SDS011;1776;53.330;11.498;2024-03-22T04:18:25;29.40;;;18.23;;
3523;SDS011;1776;53.330;11.498;2024-03-22T04:20:57;32.60;;;18.67;;
3523;SDS011;1776;53.330;11.498;2024-03-22T04:23:24;37.27;;;20.07;;
3523;SDS011;1776;53.330;11.498;2024-03-22T04:25:56;28.60;;;17.17;;
3523;SDS011;1776;53.330;11.498;2024-03-22T04:28:25;29.77;;;18.97;;
3523;SDS011;1776;53.330;11.498;2024-03-22T04:33:24;29.20;;;16.30;;
3523;SDS011;1776;53.330;11.498;2024-03-22T04:35:49;31.60;;;19.50;;
3523;SDS011;1776;53.330;11.498;2024-03-22T04:38:15;28.40;;;17.80;;
3523;SDS011;1776;53.330;11.498;2024-03-22T04:40:40;31.10;;;18.70;;
3523;SDS011;1776;53.330;11.498;2024-03-22T04:43:06;34.37;;;18.50;;
3523;SDS011;1776;53.330;11.498;2024-03-22T04:45:31;27.40;;;17.03;;
3523;SDS011;1776;53.330;11.498;2024-03-22T04:47:56;28.00;;;18.80;;
3523;SDS011;1776;53.330;11.498;2024-03-22T04:50:21;29.73;;;17.77;;
3523;SDS011;1776;53.330;11.498;2024-03-22T04:52:47;28.87;;;18.47;;
3523;SDS011;1776;53.330;11.498;2024-03-22T04:55:12;29.63;;;18.73;;
3523;SDS011;1776;53.330;11.498;2024-03-22T04:57:37;33.00;;;20.43;;
3523;SDS011;1776;53.330;11.498;2024-03-22T05:00:03;31.80;;;20.60;;
3523;SDS011;1776;53.330;11.498;2024-03-22T05:02:28;33.10;;;19.70;;
3523;SDS011;1776;53.330;11.498;2024-03-22T05:04:54;28.47;;;18.47;;
3523;SDS011;1776;53.330;11.498;2024-03-22T05:07:19;25.17;;;16.90;;
3523;SDS011;1776;53.330;11.498;2024-03-22T05:09:44;30.67;;;18.40;;
3523;SDS011;1776;53.330;11.498;2024-03-22T05:12:09;34.03;;;19.53;;
3523;SDS011;1776;53.330;11.498;2024-03-22T05:14:35;30.30;;;18.47;;
3523;SDS011;1776;53.330;11.498;2024-03-22T05:17:00;28.40;;;18.13;;
3523;SDS011;1776;53.330;11.498;2024-03-22T05:19:25;29.43;;;19.70;;
3523;SDS011;1776;53.330;11.498;2024-03-22T05:21:51;31.10;;;19.00;;
3523;SDS011;1776;53.330;11.498;2024-03-22T05:24:16;27.87;;;19.10;;
3523;SDS011;1776;53.330;11.498;2024-03-22T05:26:41;33.53;;;20.93;;
3523;SDS011;1776;53.330;11.498;2024-03-22T05:29:07;40.90;;;21.17;;
3523;SDS011;1776;53.330;11.498;2024-03-22T05:31:32;34.23;;;20.63;;
3523;SDS011;1776;53.330;11.498;2024-03-22T05:34:11;32.23;;;19.67;;
3523;SDS011;1776;53.330;11.498;2024-03-22T05:36:36;32.90;;;20.80;;
3523;SDS011;1776;53.330;11.498;2024-03-22T05:39:02;28.07;;;19.17;;
3523;SDS011;1776;53.330;11.498;2024-03-22T05:41:27;42.30;;;22.60;;
3523;SDS011;1776;53.330;11.498;2024-03-22T05:43:52;40.47;;;23.77;;
3523;SDS011;1776;53.330;11.498;2024-03-22T05:46:17;37.60;;;22.87;;
3523;SDS011;1776;53.330;11.498;2024-03-22T05:48:43;36.50;;;24.07;;
3523;SDS011;1776;53.330;11.498;2024-03-22T05:51:08;37.60;;;23.17;;
3523;SDS011;1776;53.330;11.498;2024-03-22T05:53:33;45.27;;;23.60;;
3523;SDS011;1776;53.330;11.498;2024-03-22T05:55:58;42.67;;;24.07;;
3523;SDS011;1776;53.330;11.498;2024-03-22T05:58:24;47.90;;;26.20;;
3523;SDS011;1776;53.330;11.498;2024-03-22T06:00:49;40.37;;;23.57;;
3523;SDS011;1776;53.330;11.498;2024-03-22T06:03:14;37.33;;;24.90;;
3523;SDS011;1776;53.330;11.498;2024-03-22T06:05:40;44.60;;;24.40;;
3523;SDS011;1776;53.330;11.498;2024-03-22T06:08:05;37.80;;;24.27;;
3523;SDS011;1776;53.330;11.498;2024-03-22T06:10:31;41.97;;;26.83;;
3523;SDS011;1776;53.330;11.498;2024-03-22T06:12:56;42.70;;;26.60;;
3523;SDS011;1776;53.330;11.498;2024-03-22T06:15:22;41.13;;;23.60;;
3523;SDS011;1776;53.330;11.498;2024-03-22T06:17:47;44.60;;;27.43;;
3523;SDS011;1776;53.330;11.498;2024-03-22T06:20:13;40.23;;;25.37;;
3523;SDS011;1776;53.330;11.498;2024-03-22T06:22:39;41.20;;;26.90;;
3523;SDS011;1776;53.330;11.498;2024-03-22T06:25:04;38.40;;;25.53;;
3523;SDS011;1776;53.330;11.498;2024-03-22T06:27:29;39.40;;;22.70;;
3523;SDS011;1776;53.330;11.498;2024-03-22T06:29:55;38.53;;;24.40;;
3523;SDS011;1776;53.330;11.498;2024-03-22T06:32:20;42.00;;;26.00;;
3523;SDS011;1776;53.330;11.498;2024-03-22T06:34:45;46.83;;;26.27;;
3523;SDS011;1776;53.330;11.498;2024-03-22T06:37:10;50.13;;;27.27;;
3523;SDS011;1776;53.330;11.498;2024-03-22T06:39:36;47.93;;;28.70;;
3523;SDS011;1776;53.330;11.498;2024-03-22T06:42:01;42.73;;;25.57;;
3523;SDS011;1776;53.330;11.498;2024-03-22T06:44:26;44.07;;;26.30;;
3523;SDS011;1776;53.330;11.498;2024-03-22T06:46:52;43.93;;;26.50;;
3523;SDS011;1776;53.330;11.498;2024-03-22T06:49:17;43.03;;;25.63;;
3523;SDS011;1776;53.330;11.498;2024-03-22T06:51:42;47.30;;;28.07;;
3523;SDS011;1776;53.330;11.498;2024-03-22T06:54:08;47.60;;;27.03;;
3523;SDS011;1776;53.330;11.498;2024-03-22T06:56:33;49.70;;;27.80;;
3523;SDS011;1776;53.330;11.498;2024-03-22T06:58:59;48.37;;;28.40;;
3523;SDS011;1776;53.330;11.498;2024-03-22T07:01:24;50.10;;;27.87;;
3523;SDS011;1776;53.330;11.498;2024-03-22T07:03:49;45.10;;;26.60;;
3523;SDS011;1776;53.330;11.498;2024-03-22T07:06:14;50.30;;;29.17;;
3523;SDS011;1776;53.330;11.498;2024-03-22T07:08:40;50.87;;;30.43;;
3523;SDS011;1776;53.330;11.498;2024-03-22T07:11:05;56.40;;;32.20;;
3523;SDS011;1776;53.330;11.498;2024-03-22T07:13:31;51.47;;;29.07;;
3523;SDS011;1776;53.330;11.498;2024-03-22T07:15:57;53.57;;;31.67;;
3523;SDS011;1776;53.330;11.498;2024-03-22T07:18:22;55.10;;;30.10;;
3523;SDS011;1776;53.330;11.498;2024-03-22T07:20:47;51.50;;;31.60;;
3523;SDS011;1776;53.330;11.498;2024-03-22T07:23:13;60.47;;;32.67;;
3523;SDS011;1776;53.330;11.498;2024-03-22T07:25:39;58.60;;;31.10;;
3523;SDS011;1776;53.330;11.498;2024-03-22T07:28:04;57.70;;;32.20;;
3523;SDS011;1776;53.330;11.498;2024-03-22T07:30:29;54.07;;;31.43;;
3523;SDS011;1776;53.330;11.498;2024-03-22T07:32:55;57.60;;;32.67;;
3523;SDS011;1776;53.330;11.498;2024-03-22T07:35:20;68.27;;;31.33;;
3523;SDS011;1776;53.330;11.498;2024-03-22T07:37:45;54.27;;;30.17;;
3523;SDS011;1776;53.330;11.498;2024-03-22T07:40:10;61.63;;;35.27;;
3523;SDS011;1776;53.330;11.498;2024-03-22T07:42:36;55.97;;;32.03;;
3523;SDS011;1776;53.330;11.498;2024-03-22T07:45:01;58.20;;;30.77;;
3523;SDS011;1776;53.330;11.498;2024-03-22T07:47:27;60.03;;;33.37;;
3523;SDS011;1776;53.330;11.498;2024-03-22T07:49:53;57.80;;;32.13;;
3523;SDS011;1776;53.330;11.498;2024-03-22T07:52:18;60.03;;;33.73;;
3523;SDS011;1776;53.330;11.498;2024-03-22T07:54:44;56.80;;;31.80;;
3523;SDS011;1776;53.330;11.498;2024-03-22T07:57:09;65.93;;;35.23;;
3523;SDS011;1776;53.330;11.498;2024-03-22T07:59:35;57.43;;;31.83;;
3523;SDS011;1776;53.330;11.498;2024-03-22T08:02:01;60.97;;;33.70;;
3523;SDS011;1776;53.330;11.498;2024-03-22T08:04:28;64.30;;;35.00;;
3523;SDS011;1776;53.330;11.498;2024-03-22T08:06:53;63.40;;;34.00;;
3523;SDS011;1776;53.330;11.498;2024-03-22T08:09:18;66.40;;;33.47;;
3523;SDS011;1776;53.330;11.498;2024-03-22T08:11:44;71.13;;;37.37;;
3523;SDS011;1776;53.330;11.498;2024-03-22T08:14:09;61.03;;;34.57;;
3523;SDS011;1776;53.330;11.498;2024-03-22T08:16:35;62.63;;;34.53;;
3523;SDS011;1776;53.330;11.498;2024-03-22T08:19:00;57.70;;;32.70;;
3523;SDS011;1776;53.330;11.498;2024-03-22T08:21:25;59.37;;;34.73;;
3523;SDS011;1776;53.330;11.498;2024-03-22T08:23:51;63.80;;;31.90;;
3523;SDS011;1776;53.330;11.498;2024-03-22T08:26:17;68.77;;;37.33;;
3523;SDS011;1776;53.330;11.498;2024-03-22T08:28:42;64.30;;;35.10;;
3523;SDS011;1776;53.330;11.498;2024-03-22T08:31:08;64.40;;;34.77;;
3523;SDS011;1776;53.330;11.498;2024-03-22T08:33:33;63.07;;;34.77;;
3523;SDS011;1776;53.330;11.498;2024-03-22T08:35:59;68.47;;;34.97;;
3523;SDS011;1776;53.330;11.498;2024-03-22T08:38:25;70.20;;;36.80;;
3523;SDS011;1776;53.330;11.498;2024-03-22T08:40:52;73.50;;;35.40;;
3523;SDS011;1776;53.330;11.498;2024-03-22T08:43:17;66.33;;;36.07;;
3523;SDS011;1776;53.330;11.498;2024-03-22T08:45:42;70.93;;;37.83;;
3523;SDS011;1776;53.330;11.498;2024-03-22T08:48:07;70.50;;;36.23;;
3523;SDS011;1776;53.330;11.498;2024-03-22T08:50:33;64.83;;;35.57;;
3523;SDS011;1776;53.330;11.498;2024-03-22T08:52:59;67.03;;;35.33;;
3523;SDS011;1776;53.330;11.498;2024-03-22T08:55:24;68.07;;;36.17;;
3523;SDS011;1776;53.330;11.498;2024-03-22T08:57:49;63.60;;;36.53;;
3523;SDS011;1776;53.330;11.498;2024-03-22T09:00:14;71.40;;;37.53;;
3523;SDS011;1776;53.330;11.498;2024-03-22T09:02:40;73.90;;;38.27;;
3523;SDS011;1776;53.330;11.498;2024-03-22T09:05:05;69.60;;;36.77;;
3523;SDS011;1776;53.330;11.498;2024-03-22T09:07:31;77.50;;;39.77;;
3523;SDS011;1776;53.330;11.498;2024-03-22T09:09:56;64.90;;;35.77;;
3523;SDS011;1776;53.330;11.498;2024-03-22T09:12:22;69.07;;;38.30;;
3523;SDS011;1776;53.330;11.498;2024-03-22T09:14:47;75.90;;;41.60;;
3523;SDS011;1776;53.330;11.498;2024-03-22T09:17:12;76.40;;;39.93;;
3523;SDS011;1776;53.330;11.498;2024-03-22T09:19:37;73.43;;;40.00;;
3523;SDS011;1776;53.330;11.498;2024-03-22T09:22:03;67.17;;;37.17;;
3523;SDS011;1776;53.330;11.498;2024-03-22T09:24:28;77.93;;;40.23;;
3523;SDS011;1776;53.330;11.498;2024-03-22T09:26:53;71.00;;;37.63;;
3523;SDS011;1776;53.330;11.498;2024-03-22T09:29:19;76.20;;;40.20;;
3523;SDS011;1776;53.330;11.498;2024-03-22T09:31:44;71.60;;;36.87;;
3523;SDS011;1776;53.330;11.498;2024-03-22T09:34:12;75.53;;;42.33;;
3523;SDS011;1776;53.330;11.498;2024-03-22T09:36:37;75.53;;;39.90;;
3523;SDS011;1776;53.330;11.498;2024-03-22T09:39:03;71.23;;;38.70;;
3523;SDS011;1776;53.330;11.498;2024-03-22T09:41:29;70.93;;;40.10;;
3523;SDS011;1776;53.330;11.498;2024-03-22T09:43:57;77.13;;;40.23;;
3523;SDS011;1776;53.330;11.498;2024-03-22T09:46:25;73.03;;;37.70;;
3523;SDS011;1776;53.330;11.498;2024-03-22T09:48:51;75.77;;;39.03;;
3523;SDS011;1776;53.330;11.498;2024-03-22T09:51:18;75.27;;;39.70;;
3523;SDS011;1776;53.330;11.498;2024-03-22T09:53:44;77.97;;;37.80;;
3523;SDS011;1776;53.330;11.498;2024-03-22T09:56:11;73.23;;;38.80;;
3523;SDS011;1776;53.330;11.498;2024-03-22T09:58:40;71.00;;;38.13;;
3523;SDS011;1776;53.330;11.498;2024-03-22T10:01:06;75.37;;;38.43;;
3523;SDS011;1776;53.330;11.498;2024-03-22T10:03:32;86.83;;;42.37;;
3523;SDS011;1776;53.330;11.498;2024-03-22T10:05:58;79.90;;;38.90;;
3523;SDS011;1776;53.330;11.498;2024-03-22T10:08:23;74.50;;;37.70;;
3523;SDS011;1776;53.330;11.498;2024-03-22T10:10:48;81.07;;;40.43;;
3523;SDS011;1776;53.330;11.498;2024-03-22T10:13:13;77.17;;;38.10;;
3523;SDS011;1776;53.330;11.498;2024-03-22T10:15:39;64.20;;;36.07;;
3523;SDS011;1776;53.330;11.498;2024-03-22T10:18:04;77.50;;;41.30;;
3523;SDS011;1776;53.330;11.498;2024-03-22T10:20:29;72.17;;;40.03;;
3523;SDS011;1776;53.330;11.498;2024-03-22T10:22:55;73.13;;;38.80;;
3523;SDS011;1776;53.330;11.498;2024-03-22T10:25:23;75.53;;;39.00;;
3523;SDS011;1776;53.330;11.498;2024-03-22T10:27:48;70.67;;;36.83;;
3523;SDS011;1776;53.330;11.498;2024-03-22T10:30:15;75.83;;;37.37;;
3523;SDS011;1776;53.330;11.498;2024-03-22T10:32:44;69.97;;;38.30;;
3523;SDS011;1776;53.330;11.498;2024-03-22T10:35:13;68.90;;;35.13;;
3523;SDS011;1776;53.330;11.498;2024-03-22T10:37:39;75.60;;;39.20;;
3523;SDS011;1776;53.330;11.498;2024-03-22T10:40:05;71.83;;;36.00;;
3523;SDS011;1776;53.330;11.498;2024-03-22T10:42:41;67.93;;;36.60;;
3523;SDS011;1776;53.330;11.498;2024-03-22T10:45:08;72.27;;;38.10;;
3523;SDS011;1776;53.330;11.498;2024-03-22T10:47:35;68.73;;;36.17;;
3523;SDS011;1776;53.330;11.498;2024-03-22T10:52:35;64.90;;;35.77;;
3523;SDS011;1776;53.330;11.498;2024-03-22T10:55:04;64.63;;;35.70;;
3523;SDS011;1776;53.330;11.498;2024-03-22T10:57:33;58.03;;;34.47;;
3523;SDS011;1776;53.330;11.498;2024-03-22T11:00:03;59.33;;;34.50;;
3523;SDS011;1776;53.330;11.498;2024-03-22T11:02:34;57.00;;;32.60;;
3523;SDS011;1776;53.330;11.498;2024-03-22T11:05:00;58.27;;;32.13;;
3523;SDS011;1776;53.330;11.498;2024-03-22T11:07:28;54.10;;;33.07;;
3523;SDS011;1776;53.330;11.498;2024-03-22T11:09:58;51.37;;;31.03;;
3523;SDS011;1776;53.330;11.498;2024-03-22T11:12:26;55.50;;;32.87;;
3523;SDS011;1776;53.330;11.498;2024-03-22T11:14:55;51.90;;;31.80;;
3523;SDS011;1776;53.330;11.498;2024-03-22T11:17:20;54.10;;;31.83;;
3523;SDS011;1776;53.330;11.498;2024-03-22T11:19:50;54.07;;;32.10;;
3523;SDS011;1776;53.330;11.498;2024-03-22T11:22:18;57.37;;;32.80;;
3523;SDS011;1776;53.330;11.498;2024-03-22T11:24:44;54.67;;;29.00;;
3523;SDS011;1776;53.330;11.498;2024-03-22T11:27:09;57.47;;;30.90;;
3523;SDS011;1776;53.330;11.498;2024-03-22T11:29:36;55.30;;;32.20;;
3523;SDS011;1776;53.330;11.498;2024-03-22T11:32:04;50.17;;;32.70;;
3523;SDS011;1776;53.330;11.498;2024-03-22T11:34:30;62.73;;;35.83;;
3523;SDS011;1776;53.330;11.498;2024-03-22T11:36:55;55.47;;;32.17;;
3523;SDS011;1776;53.330;11.498;2024-03-22T11:39:21;62.87;;;34.97;;
3523;SDS011;1776;53.330;11.498;2024-03-22T11:41:46;56.97;;;32.03;;
3523;SDS011;1776;53.330;11.498;2024-03-22T11:44:14;61.27;;;35.77;;
3523;SDS011;1776;53.330;11.498;2024-03-22T11:46:41;58.90;;;32.97;;
3523;SDS011;1776;53.330;11.498;2024-03-22T11:49:06;59.23;;;31.90;;
3523;SDS011;1776;53.330;11.498;2024-03-22T11:51:32;60.00;;;34.23;;
3523;SDS011;1776;53.330;11.498;2024-03-22T11:53:57;63.40;;;34.37;;
3523;SDS011;1776;53.330;11.498;2024-03-22T11:56:24;60.40;;;32.23;;
3523;SDS011;1776;53.330;11.498;2024-03-22T11:58:57;67.10;;;34.40;;
3523;SDS011;1776;53.330;11.498;2024-03-22T12:01:23;54.90;;;32.60;;
3523;SDS011;1776;53.330;11.498;2024-03-22T12:03:49;54.10;;;30.80;;
3523;SDS011;1776;53.330;11.498;2024-03-22T12:06:15;57.17;;;31.30;;
3523;SDS011;1776;53.330;11.498;2024-03-22T12:08:40;52.40;;;30.47;;
3523;SDS011;1776;53.330;11.498;2024-03-22T12:11:07;57.30;;;33.60;;
3523;SDS011;1776;53.330;11.498;2024-03-22T12:13:37;49.77;;;31.57;;
3523;SDS011;1776;53.330;11.498;2024-03-22T12:16:05;61.40;;;30.73;;
3523;SDS011;1776;53.330;11.498;2024-03-22T12:18:31;47.53;;;30.00;;
3523;SDS011;1776;53.330;11.498;2024-03-22T12:20:56;53.00;;;30.30;;
3523;SDS011;1776;53.330;11.498;2024-03-22T12:23:22;54.97;;;31.27;;
3523;SDS011;1776;53.330;11.498;2024-03-22T12:25:49;53.70;;;31.17;;
3523;SDS011;1776;53.330;11.498;2024-03-22T12:28:15;52.40;;;31.10;;
3523;SDS011;1776;53.330;11.498;2024-03-22T12:30:40;44.77;;;28.27;;
3523;SDS011;1776;53.330;11.498;2024-03-22T12:33:06;56.63;;;30.83;;
3523;SDS011;1776;53.330;11.498;2024-03-22T12:35:35;51.17;;;33.70;;
3523;SDS011;1776;53.330;11.498;2024-03-22T12:38:00;52.80;;;30.43;;
3523;SDS011;1776;53.330;11.498;2024-03-22T12:40:26;50.20;;;30.57;;
3523;SDS011;1776;53.330;11.498;2024-03-22T12:42:52;49.50;;;30.23;;
3523;SDS011;1776;53.330;11.498;2024-03-22T12:45:17;49.83;;;30.27;;
3523;SDS011;1776;53.330;11.498;2024-03-22T12:47:43;47.40;;;30.27;;
3523;SDS011;1776;53.330;11.498;2024-03-22T12:50:08;48.60;;;27.93;;
3523;SDS011;1776;53.330;11.498;2024-03-22T12:52:33;50.63;;;28.13;;
3523;SDS011;1776;53.330;11.498;2024-03-22T12:55:00;49.60;;;28.73;;
3523;SDS011;1776;53.330;11.498;2024-03-22T12:57:25;50.53;;;27.80;;
3523;SDS011;1776;53.330;11.498;2024-03-22T12:59:50;44.00;;;27.13;;
3523;SDS011;1776;53.330;11.498;2024-03-22T13:02:16;43.50;;;26.70;;
3523;SDS011;1776;53.330;11.498;2024-03-22T13:04:41;48.00;;;26.20;;
3523;SDS011;1776;53.330;11.498;2024-03-22T13:07:08;43.20;;;25.03;;
3523;SDS011;1776;53.330;11.498;2024-03-22T13:09:33;41.53;;;24.47;;
3523;SDS011;1776;53.330;11.498;2024-03-22T13:11:59;36.10;;;22.87;;
3523;SDS011;1776;53.330;11.498;2024-03-22T13:14:24;34.17;;;21.00;;
3523;SDS011;1776;53.330;11.498;2024-03-22T13:16:49;39.33;;;23.63;;
3523;SDS011;1776;53.330;11.498;2024-03-22T13:19:15;39.70;;;22.60;;
3523;SDS011;1776;53.330;11.498;2024-03-22T13:21:40;43.50;;;23.97;;
3523;SDS011;1776;53.330;11.498;2024-03-22T13:24:05;28.97;;;18.03;;
3523;SDS011;1776;53.330;11.498;2024-03-22T13:26:31;28.27;;;17.63;;
3523;SDS011;1776;53.330;11.498;2024-03-22T13:28:56;28.10;;;17.37;;
3523;SDS011;1776;53.330;11.498;2024-03-22T13:31:21;24.73;;;15.67;;
3523;SDS011;1776;53.330;11.498;2024-03-22T13:33:47;29.17;;;16.50;;
3523;SDS011;1776;53.330;11.498;2024-03-22T13:36:12;26.27;;;14.70;;
3523;SDS011;1776;53.330;11.498;2024-03-22T13:38:38;23.07;;;16.90;;
3523;SDS011;1776;53.330;11.498;2024-03-22T13:41:03;21.83;;;15.13;;
3523;SDS011;1776;53.330;11.498;2024-03-22T13:43:30;23.70;;;15.10;;
3523;SDS011;1776;53.330;11.498;2024-03-22T13:45:56;23.10;;;15.80;;
3523;SDS011;1776;53.330;11.498;2024-03-22T13:48:22;26.93;;;15.20;;
3523;SDS011;1776;53.330;11.498;2024-03-22T13:50:54;28.03;;;17.73;;
3523;SDS011;1776;53.330;11.498;2024-03-22T13:53:20;22.70;;;15.27;;
3523;SDS011;1776;53.330;11.498;2024-03-22T13:55:49;20.37;;;13.10;;
3523;SDS011;1776;53.330;11.498;2024-03-22T13:58:14;24.33;;;14.70;;
3523;SDS011;1776;53.330;11.498;2024-03-22T14:00:40;23.53;;;15.77;;
3523;SDS011;1776;53.330;11.498;2024-03-22T14:03:06;21.13;;;13.73;;
3523;SDS011;1776;53.330;11.498;2024-03-22T14:05:31;18.97;;;12.63;;
3523;SDS011;1776;53.330;11.498;2024-03-22T14:07:57;23.13;;;14.60;;
3523;SDS011;1776;53.330;11.498;2024-03-22T14:10:23;21.40;;;12.53;;
3523;SDS011;1776;53.330;11.498;2024-03-22T14:12:51;20.00;;;11.87;;
3523;SDS011;1776;53.330;11.498;2024-03-22T14:15:16;20.60;;;13.30;;
3523;SDS011;1776;53.330;11.498;2024-03-22T14:17:42;26.33;;;13.43;;
3523;SDS011;1776;53.330;11.498;2024-03-22T14:20:07;17.03;;;11.70;;
3523;SDS011;1776;53.330;11.498;2024-03-22T14:22:40;18.00;;;12.43;;
3523;SDS011;1776;53.330;11.498;2024-03-22T14:25:06;22.53;;;13.30;;
3523;SDS011;1776;53.330;11.498;2024-03-22T14:27:33;25.20;;;13.30;;
3523;SDS011;1776;53.330;11.498;2024-03-22T14:29:59;22.53;;;11.87;;
3523;SDS011;1776;53.330;11.498;2024-03-22T14:32:25;20.03;;;12.47;;